sensor_id;sensor_type;location;lat;lon;timestamp;temperature;humidity
45729;DHT22;31439;53.512;10.206;2023-01-25T00:01:44;1.90;99.90
45729;DHT22;31439;53.512;10.206;2023-01-25T00:04:10;2.00;99.90
45729;DHT22;31439;53.512;10.206;2023-01-25T00:06:36;2.00;99.90
45729;DHT22;31439;53.512;10.206;2023-01-25T00:09:02;2.00;99.90
45729;DHT22;31439;53.512;10.206;2023-01-25T00:11:28;2.00;99.90
45729;DHT22;31439;53.512;10.206;2023-01-25T00:13:54;1.90;99.90
45729;DHT22;31439;53.512;10.206;2023-01-25T00:16:20;1.90;99.90
45729;DHT22;31439;53.512;10.206;2023-01-25T00:18:47;1.90;99.90
45729;DHT22;31439;53.512;10.206;2023-01-25T00:21:14;1.90;99.90
45729;DHT22;31439;53.512;10.206;2023-01-25T00:23:40;1.80;99.90
45729;DHT22;31439;53.512;10.206;2023-01-25T00:26:06;1.90;99.90
45729;DHT22;31439;53.512;10.206;2023-01-25T00:28:31;1.90;99.90
45729;DHT22;31439;53.512;10.206;2023-01-25T00:31:00;1.90;99.90
45729;DHT22;31439;53.512;10.206;2023-01-25T00:33:49;1.90;99.90
45729;DHT22;31439;53.512;10.206;2023-01-25T00:39:04;1.80;99.90
45729;DHT22;31439;53.512;10.206;2023-01-25T00:41:31;1.70;99.90
45729;DHT22;31439;53.512;10.206;2023-01-25T00:43:57;1.60;99.90
45729;DHT22;31439;53.512;10.206;2023-01-25T00:46:23;1.70;99.90
45729;DHT22;31439;53.512;10.206;2023-01-25T00:48:51;1.70;99.90
45729;DHT22;31439;53.512;10.206;2023-01-25T00:51:17;1.70;99.90
45729;DHT22;31439;53.512;10.206;2023-01-25T00:53:42;1.70;99.90
45729;DHT22;31439;53.512;10.206;2023-01-25T00:56:08;1.80;99.90
45729;DHT22;31439;53.512;10.206;2023-01-25T00:58:34;1.70;99.90
45729;DHT22;31439;53.512;10.206;2023-01-25T01:00:59;1.70;99.90
45729;DHT22;31439;53.512;10.206;2023-01-25T01:03:25;1.50;99.90
45729;DHT22;31439;53.512;10.206;2023-01-25T01:06:08;1.40;99.90
45729;DHT22;31439;53.512;10.206;2023-01-25T01:08:37;1.40;99.90
45729;DHT22;31439;53.512;10.206;2023-01-25T01:11:06;1.50;99.90
45729;DHT22;31439;53.512;10.206;2023-01-25T01:13:32;1.50;99.90
45729;DHT22;31439;53.512;10.206;2023-01-25T01:16:00;1.50;99.90
45729;DHT22;31439;53.512;10.206;2023-01-25T01:18:27;1.50;99.90
45729;DHT22;31439;53.512;10.206;2023-01-25T01:20:53;1.50;99.90
45729;DHT22;31439;53.512;10.206;2023-01-25T01:23:19;1.50;99.90
45729;DHT22;31439;53.512;10.206;2023-01-25T01:25:45;1.40;99.90
45729;DHT22;31439;53.512;10.206;2023-01-25T01:28:11;1.40;99.90
45729;DHT22;31439;53.512;10.206;2023-01-25T01:30:38;1.40;99.90
45729;DHT22;31439;53.512;10.206;2023-01-25T01:33:04;1.30;99.90
45729;DHT22;31439;53.512;10.206;2023-01-25T01:35:30;1.30;99.90
45729;DHT22;31439;53.512;10.206;2023-01-25T01:37:58;1.30;99.90
45729;DHT22;31439;53.512;10.206;2023-01-25T01:40:24;1.20;99.90
45729;DHT22;31439;53.512;10.206;2023-01-25T01:43:03;1.20;99.90
45729;DHT22;31439;53.512;10.206;2023-01-25T01:51:14;1.30;99.90
45729;DHT22;31439;53.512;10.206;2023-01-25T01:53:43;1.30;99.90
45729;DHT22;31439;53.512;10.206;2023-01-25T01:56:12;1.40;99.90
45729;DHT22;31439;53.512;10.206;2023-01-25T01:58:40;1.40;99.90
45729;DHT22;31439;53.512;10.206;2023-01-25T02:01:07;1.30;99.90
45729;DHT22;31439;53.512;10.206;2023-01-25T02:03:33;1.30;99.90
45729;DHT22;31439;53.512;10.206;2023-01-25T02:06:26;1.30;99.90
45729;DHT22;31439;53.512;10.206;2023-01-25T02:08:53;1.30;99.90
45729;DHT22;31439;53.512;10.206;2023-01-25T02:11:20;1.20;99.90
45729;DHT22;31439;53.512;10.206;2023-01-25T02:13:46;1.20;99.90
45729;DHT22;31439;53.512;10.206;2023-01-25T02:16:15;1.30;99.90
45729;DHT22;31439;53.512;10.206;2023-01-25T02:18:41;1.30;99.90
45729;DHT22;31439;53.512;10.206;2023-01-25T02:21:07;1.30;99.90
45729;DHT22;31439;53.512;10.206;2023-01-25T02:26:43;1.20;99.90
45729;DHT22;31439;53.512;10.206;2023-01-25T02:29:10;1.30;99.90
45729;DHT22;31439;53.512;10.206;2023-01-25T02:31:36;1.30;99.90
45729;DHT22;31439;53.512;10.206;2023-01-25T02:34:02;1.30;99.90
45729;DHT22;31439;53.512;10.206;2023-01-25T02:36:30;1.20;99.90
45729;DHT22;31439;53.512;10.206;2023-01-25T02:39:04;1.20;99.90
45729;DHT22;31439;53.512;10.206;2023-01-25T02:43:58;1.20;99.90
45729;DHT22;31439;53.512;10.206;2023-01-25T02:46:27;1.10;99.90
45729;DHT22;31439;53.512;10.206;2023-01-25T02:48:55;1.20;99.90
45729;DHT22;31439;53.512;10.206;2023-01-25T02:51:22;1.20;99.90
45729;DHT22;31439;53.512;10.206;2023-01-25T02:53:49;1.10;99.90
45729;DHT22;31439;53.512;10.206;2023-01-25T02:56:15;1.00;99.90
45729;DHT22;31439;53.512;10.206;2023-01-25T02:58:41;1.10;99.90
45729;DHT22;31439;53.512;10.206;2023-01-25T03:01:06;1.10;99.90
45729;DHT22;31439;53.512;10.206;2023-01-25T03:03:32;1.10;99.90
45729;DHT22;31439;53.512;10.206;2023-01-25T03:05:57;1.10;99.90
45729;DHT22;31439;53.512;10.206;2023-01-25T03:08:23;1.10;99.90
45729;DHT22;31439;53.512;10.206;2023-01-25T03:10:49;1.10;99.90
45729;DHT22;31439;53.512;10.206;2023-01-25T03:13:14;1.10;99.90
45729;DHT22;31439;53.512;10.206;2023-01-25T03:15:40;1.10;99.90
45729;DHT22;31439;53.512;10.206;2023-01-25T03:18:05;1.10;99.90
45729;DHT22;31439;53.512;10.206;2023-01-25T03:20:31;1.00;99.90
45729;DHT22;31439;53.512;10.206;2023-01-25T03:22:57;1.00;99.90
45729;DHT22;31439;53.512;10.206;2023-01-25T03:25:22;1.00;99.90
45729;DHT22;31439;53.512;10.206;2023-01-25T03:27:48;0.90;99.90
45729;DHT22;31439;53.512;10.206;2023-01-25T03:30:14;1.00;99.90
45729;DHT22;31439;53.512;10.206;2023-01-25T03:32:39;1.00;99.90
45729;DHT22;31439;53.512;10.206;2023-01-25T03:35:05;1.10;99.90
45729;DHT22;31439;53.512;10.206;2023-01-25T03:37:31;1.50;99.90
45729;DHT22;31439;53.512;10.206;2023-01-25T03:39:57;1.10;99.90
45729;DHT22;31439;53.512;10.206;2023-01-25T03:42:23;1.00;99.90
45729;DHT22;31439;53.512;10.206;2023-01-25T03:44:48;0.90;99.90
45729;DHT22;31439;53.512;10.206;2023-01-25T03:47:14;0.90;99.90
45729;DHT22;31439;53.512;10.206;2023-01-25T03:49:40;0.90;99.90
45729;DHT22;31439;53.512;10.206;2023-01-25T03:52:06;1.00;99.90
45729;DHT22;31439;53.512;10.206;2023-01-25T03:54:32;1.00;99.90
45729;DHT22;31439;53.512;10.206;2023-01-25T03:56:58;0.90;99.90
45729;DHT22;31439;53.512;10.206;2023-01-25T03:59:24;0.90;99.90
45729;DHT22;31439;53.512;10.206;2023-01-25T04:01:49;0.80;99.90
45729;DHT22;31439;53.512;10.206;2023-01-25T04:04:15;0.90;99.90
45729;DHT22;31439;53.512;10.206;2023-01-25T04:06:41;1.00;99.90
45729;DHT22;31439;53.512;10.206;2023-01-25T04:09:06;1.00;99.90
45729;DHT22;31439;53.512;10.206;2023-01-25T04:11:32;0.90;99.90
45729;DHT22;31439;53.512;10.206;2023-01-25T04:13:58;0.90;99.90
45729;DHT22;31439;53.512;10.206;2023-01-25T04:16:23;1.00;99.90
45729;DHT22;31439;53.512;10.206;2023-01-25T04:18:49;1.00;99.90
45729;DHT22;31439;53.512;10.206;2023-01-25T04:21:14;0.90;99.90
45729;DHT22;31439;53.512;10.206;2023-01-25T04:23:40;0.90;99.90
45729;DHT22;31439;53.512;10.206;2023-01-25T04:26:07;0.80;99.90
45729;DHT22;31439;53.512;10.206;2023-01-25T04:28:34;0.80;99.90
45729;DHT22;31439;53.512;10.206;2023-01-25T04:31:00;0.90;99.90
45729;DHT22;31439;53.512;10.206;2023-01-25T04:33:28;0.80;99.90
45729;DHT22;31439;53.512;10.206;2023-01-25T04:35:54;0.90;99.90
45729;DHT22;31439;53.512;10.206;2023-01-25T04:38:20;0.80;99.90
45729;DHT22;31439;53.512;10.206;2023-01-25T04:40:45;0.70;99.90
45729;DHT22;31439;53.512;10.206;2023-01-25T04:43:16;0.70;99.90
45729;DHT22;31439;53.512;10.206;2023-01-25T04:45:42;0.80;99.90
45729;DHT22;31439;53.512;10.206;2023-01-25T04:48:09;0.90;99.90
45729;DHT22;31439;53.512;10.206;2023-01-25T04:50:36;0.80;99.90
45729;DHT22;31439;53.512;10.206;2023-01-25T04:53:01;0.90;99.90
45729;DHT22;31439;53.512;10.206;2023-01-25T04:55:27;0.80;99.90
45729;DHT22;31439;53.512;10.206;2023-01-25T04:57:53;0.90;99.90
45729;DHT22;31439;53.512;10.206;2023-01-25T05:00:19;0.90;99.90
45729;DHT22;31439;53.512;10.206;2023-01-25T05:02:45;0.90;99.90
45729;DHT22;31439;53.512;10.206;2023-01-25T05:05:10;0.90;99.90
45729;DHT22;31439;53.512;10.206;2023-01-25T05:07:36;0.80;99.90
45729;DHT22;31439;53.512;10.206;2023-01-25T05:10:02;0.80;99.90
45729;DHT22;31439;53.512;10.206;2023-01-25T05:12:28;0.70;99.90
45729;DHT22;31439;53.512;10.206;2023-01-25T05:14:53;0.90;99.90
45729;DHT22;31439;53.512;10.206;2023-01-25T05:17:20;0.90;99.90
45729;DHT22;31439;53.512;10.206;2023-01-25T05:19:46;0.90;99.90
45729;DHT22;31439;53.512;10.206;2023-01-25T05:22:13;0.90;99.90
45729;DHT22;31439;53.512;10.206;2023-01-25T05:24:39;0.90;99.90
45729;DHT22;31439;53.512;10.206;2023-01-25T05:27:06;0.80;99.90
45729;DHT22;31439;53.512;10.206;2023-01-25T05:29:35;0.80;99.90
45729;DHT22;31439;53.512;10.206;2023-01-25T05:32:14;1.00;99.90
45729;DHT22;31439;53.512;10.206;2023-01-25T05:34:41;0.90;99.90
45729;DHT22;31439;53.512;10.206;2023-01-25T05:37:08;0.80;99.90
45729;DHT22;31439;53.512;10.206;2023-01-25T05:39:35;0.70;99.90
45729;DHT22;31439;53.512;10.206;2023-01-25T05:42:00;0.80;99.90
45729;DHT22;31439;53.512;10.206;2023-01-25T05:44:27;0.90;99.90
45729;DHT22;31439;53.512;10.206;2023-01-25T05:46:52;0.80;99.90
45729;DHT22;31439;53.512;10.206;2023-01-25T05:49:18;0.80;99.90
45729;DHT22;31439;53.512;10.206;2023-01-25T05:51:45;0.80;99.90
45729;DHT22;31439;53.512;10.206;2023-01-25T05:54:13;0.80;99.90
45729;DHT22;31439;53.512;10.206;2023-01-25T05:56:39;0.80;99.90
45729;DHT22;31439;53.512;10.206;2023-01-25T05:59:05;0.90;99.90
45729;DHT22;31439;53.512;10.206;2023-01-25T06:01:31;0.80;99.90
45729;DHT22;31439;53.512;10.206;2023-01-25T06:03:57;0.70;99.90
45729;DHT22;31439;53.512;10.206;2023-01-25T06:06:23;0.60;99.90
45729;DHT22;31439;53.512;10.206;2023-01-25T06:08:49;0.50;99.90
45729;DHT22;31439;53.512;10.206;2023-01-25T06:11:17;0.50;99.90
45729;DHT22;31439;53.512;10.206;2023-01-25T06:13:43;0.70;99.90
45729;DHT22;31439;53.512;10.206;2023-01-25T06:16:09;0.70;99.90
45729;DHT22;31439;53.512;10.206;2023-01-25T06:18:36;0.70;99.90
45729;DHT22;31439;53.512;10.206;2023-01-25T06:21:03;0.70;99.90
45729;DHT22;31439;53.512;10.206;2023-01-25T06:23:29;0.80;99.90
45729;DHT22;31439;53.512;10.206;2023-01-25T06:25:58;0.80;99.90
45729;DHT22;31439;53.512;10.206;2023-01-25T06:28:24;0.80;99.90
45729;DHT22;31439;53.512;10.206;2023-01-25T06:30:50;0.80;99.90
45729;DHT22;31439;53.512;10.206;2023-01-25T06:33:15;0.80;99.90
45729;DHT22;31439;53.512;10.206;2023-01-25T06:35:41;0.70;99.90
45729;DHT22;31439;53.512;10.206;2023-01-25T06:38:07;0.70;99.90
45729;DHT22;31439;53.512;10.206;2023-01-25T06:40:33;0.70;99.90
45729;DHT22;31439;53.512;10.206;2023-01-25T06:43:06;0.60;99.90
45729;DHT22;31439;53.512;10.206;2023-01-25T06:45:32;0.60;99.90
45729;DHT22;31439;53.512;10.206;2023-01-25T06:47:57;0.60;99.90
45729;DHT22;31439;53.512;10.206;2023-01-25T06:50:23;0.60;99.90
45729;DHT22;31439;53.512;10.206;2023-01-25T06:52:54;0.70;99.90
45729;DHT22;31439;53.512;10.206;2023-01-25T06:55:21;0.80;99.90
45729;DHT22;31439;53.512;10.206;2023-01-25T06:57:47;0.80;99.90
45729;DHT22;31439;53.512;10.206;2023-01-25T07:00:14;0.70;99.90
45729;DHT22;31439;53.512;10.206;2023-01-25T07:02:40;0.70;99.90
45729;DHT22;31439;53.512;10.206;2023-01-25T07:05:06;0.80;99.90
45729;DHT22;31439;53.512;10.206;2023-01-25T07:07:32;0.80;99.90
45729;DHT22;31439;53.512;10.206;2023-01-25T07:09:58;0.90;99.90
45729;DHT22;31439;53.512;10.206;2023-01-25T07:12:24;0.90;99.90
45729;DHT22;31439;53.512;10.206;2023-01-25T07:14:50;0.80;99.90
45729;DHT22;31439;53.512;10.206;2023-01-25T07:17:16;0.80;99.90
45729;DHT22;31439;53.512;10.206;2023-01-25T07:19:42;0.80;99.90
45729;DHT22;31439;53.512;10.206;2023-01-25T07:22:07;0.70;99.90
45729;DHT22;31439;53.512;10.206;2023-01-25T07:24:33;0.60;99.90
45729;DHT22;31439;53.512;10.206;2023-01-25T07:26:58;0.70;99.90
45729;DHT22;31439;53.512;10.206;2023-01-25T07:29:24;0.70;99.90
45729;DHT22;31439;53.512;10.206;2023-01-25T07:31:49;0.70;99.90
45729;DHT22;31439;53.512;10.206;2023-01-25T07:34:15;0.70;99.90
45729;DHT22;31439;53.512;10.206;2023-01-25T07:36:41;0.70;99.90
45729;DHT22;31439;53.512;10.206;2023-01-25T07:39:09;0.70;99.90
45729;DHT22;31439;53.512;10.206;2023-01-25T07:41:36;0.60;99.90
45729;DHT22;31439;53.512;10.206;2023-01-25T07:44:01;0.60;99.90
45729;DHT22;31439;53.512;10.206;2023-01-25T07:46:28;0.60;99.90
45729;DHT22;31439;53.512;10.206;2023-01-25T07:48:53;0.70;99.90
45729;DHT22;31439;53.512;10.206;2023-01-25T07:51:20;0.80;99.90
45729;DHT22;31439;53.512;10.206;2023-01-25T07:53:53;0.70;99.90
45729;DHT22;31439;53.512;10.206;2023-01-25T07:56:21;0.70;99.90
45729;DHT22;31439;53.512;10.206;2023-01-25T07:58:47;0.60;99.90
45729;DHT22;31439;53.512;10.206;2023-01-25T08:01:17;0.70;99.90
45729;DHT22;31439;53.512;10.206;2023-01-25T08:03:45;0.60;99.90
45729;DHT22;31439;53.512;10.206;2023-01-25T08:06:11;0.60;99.90
45729;DHT22;31439;53.512;10.206;2023-01-25T08:08:39;0.60;99.90
45729;DHT22;31439;53.512;10.206;2023-01-25T08:11:09;0.60;99.90
45729;DHT22;31439;53.512;10.206;2023-01-25T08:13:35;0.60;99.90
45729;DHT22;31439;53.512;10.206;2023-01-25T08:16:01;0.70;99.90
45729;DHT22;31439;53.512;10.206;2023-01-25T08:18:26;0.70;99.90
45729;DHT22;31439;53.512;10.206;2023-01-25T08:20:52;0.70;99.90
45729;DHT22;31439;53.512;10.206;2023-01-25T08:23:18;0.80;99.90
45729;DHT22;31439;53.512;10.206;2023-01-25T08:25:45;1.10;99.90
45729;DHT22;31439;53.512;10.206;2023-01-25T08:28:10;0.70;99.90
45729;DHT22;31439;53.512;10.206;2023-01-25T08:30:36;0.60;99.90
45729;DHT22;31439;53.512;10.206;2023-01-25T08:33:02;0.50;99.90
45729;DHT22;31439;53.512;10.206;2023-01-25T08:35:27;0.60;99.90
45729;DHT22;31439;53.512;10.206;2023-01-25T08:37:53;0.70;99.90
45729;DHT22;31439;53.512;10.206;2023-01-25T08:40:18;0.60;99.90
45729;DHT22;31439;53.512;10.206;2023-01-25T08:42:44;0.50;99.90
45729;DHT22;31439;53.512;10.206;2023-01-25T08:45:10;0.60;99.90
45729;DHT22;31439;53.512;10.206;2023-01-25T08:47:35;0.70;99.90
45729;DHT22;31439;53.512;10.206;2023-01-25T08:50:01;0.70;99.90
45729;DHT22;31439;53.512;10.206;2023-01-25T08:52:27;0.80;99.90
45729;DHT22;31439;53.512;10.206;2023-01-25T08:54:52;0.90;99.90
45729;DHT22;31439;53.512;10.206;2023-01-25T08:57:18;0.80;99.90
45729;DHT22;31439;53.512;10.206;2023-01-25T08:59:43;0.70;99.90
45729;DHT22;31439;53.512;10.206;2023-01-25T09:02:12;0.60;99.90
45729;DHT22;31439;53.512;10.206;2023-01-25T09:04:38;0.50;99.90
45729;DHT22;31439;53.512;10.206;2023-01-25T09:07:04;0.60;99.90
45729;DHT22;31439;53.512;10.206;2023-01-25T09:09:30;0.60;99.90
45729;DHT22;31439;53.512;10.206;2023-01-25T09:11:56;0.60;99.90
45729;DHT22;31439;53.512;10.206;2023-01-25T09:14:22;0.50;99.90
45729;DHT22;31439;53.512;10.206;2023-01-25T09:16:47;0.40;99.90
45729;DHT22;31439;53.512;10.206;2023-01-25T09:19:13;0.50;99.90
45729;DHT22;31439;53.512;10.206;2023-01-25T09:21:39;0.50;99.90
45729;DHT22;31439;53.512;10.206;2023-01-25T09:24:05;0.60;99.90
45729;DHT22;31439;53.512;10.206;2023-01-25T09:26:32;0.70;99.90
45729;DHT22;31439;53.512;10.206;2023-01-25T09:28:58;0.80;99.90
45729;DHT22;31439;53.512;10.206;2023-01-25T09:31:23;0.80;99.90
45729;DHT22;31439;53.512;10.206;2023-01-25T09:33:50;0.70;99.90
45729;DHT22;31439;53.512;10.206;2023-01-25T09:36:16;0.60;99.90
45729;DHT22;31439;53.512;10.206;2023-01-25T09:38:42;0.70;99.90
45729;DHT22;31439;53.512;10.206;2023-01-25T09:41:29;0.70;99.90
45729;DHT22;31439;53.512;10.206;2023-01-25T09:44:18;0.80;99.90
45729;DHT22;31439;53.512;10.206;2023-01-25T09:46:52;0.90;99.90
45729;DHT22;31439;53.512;10.206;2023-01-25T09:54:59;0.90;99.90
45729;DHT22;31439;53.512;10.206;2023-01-25T09:57:32;1.00;99.90
45729;DHT22;31439;53.512;10.206;2023-01-25T10:00:02;0.80;99.90
45729;DHT22;31439;53.512;10.206;2023-01-25T10:03:09;0.70;99.90
45729;DHT22;31439;53.512;10.206;2023-01-25T10:05:42;0.70;99.90
45729;DHT22;31439;53.512;10.206;2023-01-25T10:11:03;0.90;99.90
45729;DHT22;31439;53.512;10.206;2023-01-25T10:13:31;0.90;99.90
45729;DHT22;31439;53.512;10.206;2023-01-25T10:16:05;0.90;99.90
45729;DHT22;31439;53.512;10.206;2023-01-25T10:18:59;0.90;99.90
45729;DHT22;31439;53.512;10.206;2023-01-25T10:21:36;0.90;99.90
45729;DHT22;31439;53.512;10.206;2023-01-25T10:24:25;0.90;99.90
45729;DHT22;31439;53.512;10.206;2023-01-25T10:30:39;0.90;99.90
45729;DHT22;31439;53.512;10.206;2023-01-25T10:33:14;0.80;99.90
45729;DHT22;31439;53.512;10.206;2023-01-25T10:35:47;0.80;99.90
45729;DHT22;31439;53.512;10.206;2023-01-25T10:38:29;0.90;99.90
45729;DHT22;31439;53.512;10.206;2023-01-25T10:41:07;0.80;99.90
45729;DHT22;31439;53.512;10.206;2023-01-25T10:43:34;0.80;99.90
45729;DHT22;31439;53.512;10.206;2023-01-25T10:46:01;0.70;99.90
45729;DHT22;31439;53.512;10.206;2023-01-25T10:48:30;0.80;99.90
45729;DHT22;31439;53.512;10.206;2023-01-25T10:50:58;0.70;99.90
45729;DHT22;31439;53.512;10.206;2023-01-25T10:53:28;0.60;99.90
45729;DHT22;31439;53.512;10.206;2023-01-25T10:56:02;0.70;99.90
45729;DHT22;31439;53.512;10.206;2023-01-25T10:58:40;0.70;99.90
45729;DHT22;31439;53.512;10.206;2023-01-25T11:01:09;0.70;99.90
45729;DHT22;31439;53.512;10.206;2023-01-25T11:03:41;0.70;99.90
45729;DHT22;31439;53.512;10.206;2023-01-25T11:06:09;0.70;99.90
45729;DHT22;31439;53.512;10.206;2023-01-25T11:08:39;0.70;99.90
45729;DHT22;31439;53.512;10.206;2023-01-25T11:13:47;0.70;99.90
45729;DHT22;31439;53.512;10.206;2023-01-25T11:16:22;0.50;99.90
45729;DHT22;31439;53.512;10.206;2023-01-25T11:18:52;0.60;99.90
45729;DHT22;31439;53.512;10.206;2023-01-25T11:21:25;0.70;99.90
45729;DHT22;31439;53.512;10.206;2023-01-25T11:24:00;0.80;99.90
45729;DHT22;31439;53.512;10.206;2023-01-25T11:26:29;0.90;99.90
45729;DHT22;31439;53.512;10.206;2023-01-25T11:31:35;1.20;99.90
45729;DHT22;31439;53.512;10.206;2023-01-25T11:34:00;0.90;99.90
45729;DHT22;31439;53.512;10.206;2023-01-25T11:55:34;0.60;99.90
45729;DHT22;31439;53.512;10.206;2023-01-25T12:10:21;0.70;99.90
45729;DHT22;31439;53.512;10.206;2023-01-25T12:23:42;0.70;99.90
45729;DHT22;31439;53.512;10.206;2023-01-25T13:05:13;0.70;99.90
45729;DHT22;31439;53.512;10.206;2023-01-25T13:08:05;0.70;99.90
45729;DHT22;31439;53.512;10.206;2023-01-25T13:10:42;0.60;99.90
45729;DHT22;31439;53.512;10.206;2023-01-25T13:13:27;0.70;99.90
45729;DHT22;31439;53.512;10.206;2023-01-25T13:15:54;0.70;99.90
45729;DHT22;31439;53.512;10.206;2023-01-25T13:21:00;0.80;99.90
45729;DHT22;31439;53.512;10.206;2023-01-25T13:23:38;0.90;99.90
45729;DHT22;31439;53.512;10.206;2023-01-25T13:28:50;0.90;99.90
45729;DHT22;31439;53.512;10.206;2023-01-25T13:34:02;0.80;99.90
45729;DHT22;31439;53.512;10.206;2023-01-25T13:44:28;0.90;99.90
45729;DHT22;31439;53.512;10.206;2023-01-25T13:46:56;0.80;99.90
45729;DHT22;31439;53.512;10.206;2023-01-25T13:49:27;0.80;99.90
45729;DHT22;31439;53.512;10.206;2023-01-25T13:51:57;0.80;99.90
45729;DHT22;31439;53.512;10.206;2023-01-25T13:54:23;0.80;99.90
45729;DHT22;31439;53.512;10.206;2023-01-25T13:57:05;0.90;99.90
45729;DHT22;31439;53.512;10.206;2023-01-25T13:59:33;0.90;99.90
45729;DHT22;31439;53.512;10.206;2023-01-25T14:01:59;1.00;99.90
45729;DHT22;31439;53.512;10.206;2023-01-25T14:04:27;1.00;99.90
45729;DHT22;31439;53.512;10.206;2023-01-25T14:06:59;1.00;99.90
45729;DHT22;31439;53.512;10.206;2023-01-25T14:09:27;1.00;99.90
45729;DHT22;31439;53.512;10.206;2023-01-25T14:11:56;1.10;99.90
45729;DHT22;31439;53.512;10.206;2023-01-25T14:14:33;1.00;99.90
45729;DHT22;31439;53.512;10.206;2023-01-25T14:19:40;1.10;99.90
45729;DHT22;31439;53.512;10.206;2023-01-25T14:24:35;1.00;99.90
45729;DHT22;31439;53.512;10.206;2023-01-25T14:27:03;1.00;99.90
45729;DHT22;31439;53.512;10.206;2023-01-25T14:29:28;1.00;99.90
45729;DHT22;31439;53.512;10.206;2023-01-25T14:31:56;1.00;99.90
45729;DHT22;31439;53.512;10.206;2023-01-25T14:34:25;1.10;99.90
45729;DHT22;31439;53.512;10.206;2023-01-25T14:37:14;1.10;99.90
45729;DHT22;31439;53.512;10.206;2023-01-25T14:39:40;1.00;99.90
45729;DHT22;31439;53.512;10.206;2023-01-25T14:42:06;1.00;99.90
45729;DHT22;31439;53.512;10.206;2023-01-25T14:44:32;1.00;99.90
45729;DHT22;31439;53.512;10.206;2023-01-25T14:47:21;1.00;99.90
45729;DHT22;31439;53.512;10.206;2023-01-25T14:49:47;0.90;99.90
45729;DHT22;31439;53.512;10.206;2023-01-25T14:52:16;0.90;99.90
45729;DHT22;31439;53.512;10.206;2023-01-25T14:54:59;0.90;99.90
45729;DHT22;31439;53.512;10.206;2023-01-25T14:57:35;0.90;99.90
45729;DHT22;31439;53.512;10.206;2023-01-25T15:00:16;0.90;99.90
45729;DHT22;31439;53.512;10.206;2023-01-25T15:02:55;0.80;99.90
45729;DHT22;31439;53.512;10.206;2023-01-25T15:05:31;0.80;99.90
45729;DHT22;31439;53.512;10.206;2023-01-25T15:10:54;0.90;99.90
45729;DHT22;31439;53.512;10.206;2023-01-25T15:13:25;0.80;99.90
45729;DHT22;31439;53.512;10.206;2023-01-25T15:16:00;0.80;99.90
45729;DHT22;31439;53.512;10.206;2023-01-25T15:21:32;0.80;99.90
45729;DHT22;31439;53.512;10.206;2023-01-25T15:23:59;0.70;99.90
45729;DHT22;31439;53.512;10.206;2023-01-25T15:26:32;0.70;99.90
45729;DHT22;31439;53.512;10.206;2023-01-25T15:29:00;0.70;99.90
45729;DHT22;31439;53.512;10.206;2023-01-25T15:31:27;0.70;99.90
45729;DHT22;31439;53.512;10.206;2023-01-25T15:33:54;0.70;99.90
45729;DHT22;31439;53.512;10.206;2023-01-25T15:36:20;0.70;99.90
45729;DHT22;31439;53.512;10.206;2023-01-25T15:38:46;0.80;99.90
45729;DHT22;31439;53.512;10.206;2023-01-25T15:41:12;0.70;99.90
45729;DHT22;31439;53.512;10.206;2023-01-25T15:43:38;0.70;99.90
45729;DHT22;31439;53.512;10.206;2023-01-25T15:46:05;0.70;99.90
45729;DHT22;31439;53.512;10.206;2023-01-25T15:48:37;0.70;99.90
45729;DHT22;31439;53.512;10.206;2023-01-25T15:51:04;0.60;99.90
45729;DHT22;31439;53.512;10.206;2023-01-25T15:53:30;0.50;99.90
45729;DHT22;31439;53.512;10.206;2023-01-25T15:56:02;0.40;99.90
45729;DHT22;31439;53.512;10.206;2023-01-25T15:58:33;0.30;99.90
45729;DHT22;31439;53.512;10.206;2023-01-25T16:00:59;0.30;99.90
45729;DHT22;31439;53.512;10.206;2023-01-25T16:03:26;0.40;99.90
45729;DHT22;31439;53.512;10.206;2023-01-25T16:06:06;0.50;99.90
45729;DHT22;31439;53.512;10.206;2023-01-25T16:08:36;0.40;99.90
45729;DHT22;31439;53.512;10.206;2023-01-25T16:11:02;0.40;99.90
45729;DHT22;31439;53.512;10.206;2023-01-25T16:13:27;0.40;99.90
45729;DHT22;31439;53.512;10.206;2023-01-25T16:15:54;0.40;99.90
45729;DHT22;31439;53.512;10.206;2023-01-25T16:18:21;0.40;99.90
45729;DHT22;31439;53.512;10.206;2023-01-25T16:20:46;0.30;99.90
45729;DHT22;31439;53.512;10.206;2023-01-25T16:23:12;0.30;99.90
45729;DHT22;31439;53.512;10.206;2023-01-25T16:25:42;0.30;99.90
45729;DHT22;31439;53.512;10.206;2023-01-25T16:28:13;0.30;99.90
45729;DHT22;31439;53.512;10.206;2023-01-25T16:30:38;0.30;99.90
45729;DHT22;31439;53.512;10.206;2023-01-25T16:33:05;0.10;99.90
